Time;durP1;ratioP1;P1;durP2;ratioP2;P2;SDS_P1;SDS_P2;PMS_P1;PMS_P2;Temp;Humidity;BMP_temperature;BMP_pressure;BME280_temperature;BME280_humidity;BME280_pressure;Samples;Min_cycle;Max_cycle;Signal;HPM_P1;HPM_P2
2021/08/26 00:00:20;;;;;;;;;;;;;;;19.38;63.93;100568.93;459615;113;922010;-80
2021/08/26 00:05:44;;;;;;;;;;;;;;;19.32;64.11;100568.09;460291;114;921621;-80
2021/08/26 00:06:47;;;;;;;;;;;;;;;19.31;64.15;100568.35;459584;113;921627;-79
2021/08/26 00:07:50;;;;;;;;;;;;;;;19.29;64.17;100559.52;459478;114;921557;-80
2021/08/26 00:08:54;;;;;;;;;;;;;;;19.29;64.23;100562.28;459275;113;921435;-80
2021/08/26 00:09:57;;;;;;;;;;;;;;;19.30;64.21;100561.16;459220;113;921622;-79
2021/08/26 00:11:01;;;;;;;;;;;;;;;19.29;64.20;100563.12;460075;113;921551;-80
2021/08/26 00:12:04;;;;;;;;;;;;;;;19.29;64.12;100563.12;461410;113;921421;-79
2021/08/26 00:13:08;;;;;;;;;;;;;;;19.31;64.12;100566.42;457990;113;921460;-79
2021/08/26 00:14:12;;;;;;;;;;;;;;;19.32;64.10;100559.80;459160;113;921617;-78
2021/08/26 00:15:15;;;;;;;;;;;;;;;19.34;64.08;100565.06;459613;113;921593;-79
2021/08/26 00:16:19;;;;;;;;;;;;;;;19.35;64.04;100561.20;461976;113;921541;-78
2021/08/26 00:17:23;;;;;;;;;;;;;;;19.34;64.00;100554.83;458465;114;921682;-77
2021/08/26 00:18:26;;;;;;;;;;;;;;;19.34;64.01;100554.83;461301;113;921579;-80
2021/08/26 00:19:30;;;;;;;;;;;;;;;19.33;63.99;100561.46;459669;114;921710;-79
2021/08/26 00:20:34;;;;;;;;;;;;;;;19.34;64.04;100560.36;460156;113;921604;-78
2021/08/26 00:21:37;;;;;;;;;;;;;;;19.35;64.16;100552.91;460238;113;922222;-79
2021/08/26 00:22:40;;;;;;;;;;;;;;;19.35;64.11;100550.14;459752;114;921527;-78
2021/08/26 00:23:44;;;;;;;;;;;;;;;19.34;64.14;100559.53;459800;113;921604;-79
2021/08/26 00:24:47;;;;;;;;;;;;;;;19.31;64.19;100555.36;458094;114;921646;-80
2021/08/26 00:25:50;;;;;;;;;;;;;;;19.29;64.27;100552.06;460015;113;921594;-78
2021/08/26 00:26:53;;;;;;;;;;;;;;;19.27;64.31;100557.02;459145;113;921551;-79
2021/08/26 00:27:57;;;;;;;;;;;;;;;19.27;64.35;100557.02;458948;113;922246;-78
2021/08/26 00:29:00;;;;;;;;;;;;;;;19.25;64.44;100556.45;458552;113;921503;-79
2021/08/26 00:30:04;;;;;;;;;;;;;;;19.23;64.54;100555.91;459190;113;921690;-79
2021/08/26 00:31:07;;;;;;;;;;;;;;;19.23;64.63;100557.84;459914;113;921595;-79
2021/08/26 00:32:11;;;;;;;;;;;;;;;19.22;64.65;100553.41;458483;114;921987;-80
2021/08/26 00:33:14;;;;;;;;;;;;;;;19.23;64.67;100558.67;460150;113;921812;-80
2021/08/26 00:34:17;;;;;;;;;;;;;;;19.23;64.63;100555.08;458435;113;921780;-80
2021/08/26 00:35:20;;;;;;;;;;;;;;;19.21;64.65;100555.34;458765;113;921570;-79
2021/08/26 00:36:24;;;;;;;;;;;;;;;19.19;64.70;100557.53;460919;113;921537;-79
2021/08/26 00:37:28;;;;;;;;;;;;;;;19.14;64.78;100555.59;459715;113;921677;-79
2021/08/26 00:38:32;;;;;;;;;;;;;;;19.11;64.81;100555.31;460640;113;921512;-79
2021/08/26 00:39:35;;;;;;;;;;;;;;;19.09;64.93;100557.51;460000;114;921571;-79
2021/08/26 00:40:39;;;;;;;;;;;;;;;19.05;64.97;100554.47;460628;113;921639;-79
2021/08/26 00:41:43;;;;;;;;;;;;;;;19.03;65.06;100550.30;460776;113;921581;-79
2021/08/26 00:42:46;;;;;;;;;;;;;;;19.01;65.13;100547.00;460836;113;921555;-79
2021/08/26 00:43:49;;;;;;;;;;;;;;;18.99;65.14;100555.55;461229;113;921575;-79
2021/08/26 00:44:52;;;;;;;;;;;;;;;18.98;65.20;100547.52;459448;113;921500;-80
2021/08/26 00:45:55;;;;;;;;;;;;;;;18.97;65.24;100545.86;459653;114;921706;-79
2021/08/26 00:46:59;;;;;;;;;;;;;;;18.97;65.23;100546.69;457790;113;921553;-80
2021/08/26 00:48:03;;;;;;;;;;;;;;;18.97;65.18;100551.38;461181;113;921797;-79
2021/08/26 00:49:07;;;;;;;;;;;;;;;18.97;65.16;100554.15;459700;113;921598;-79
2021/08/26 00:50:10;;;;;;;;;;;;;;;18.96;65.14;100546.98;458577;113;921509;-80
2021/08/26 00:51:14;;;;;;;;;;;;;;;18.97;65.06;100548.63;458402;113;921544;-78
2021/08/26 00:52:17;;;;;;;;;;;;;;;18.96;65.05;100555.27;458227;113;921571;-80
2021/08/26 00:53:23;;;;;;;;;;;;;;;18.95;65.07;100551.67;459758;113;921516;-78
2021/08/26 00:54:28;;;;;;;;;;;;;;;18.93;65.16;100544.75;457411;114;921524;-80
2021/08/26 00:55:32;;;;;;;;;;;;;;;18.93;65.17;100541.98;458150;113;921670;-79
2021/08/26 00:56:35;;;;;;;;;;;;;;;18.92;65.21;100551.36;458214;113;921494;-78
2021/08/26 00:57:39;;;;;;;;;;;;;;;18.92;65.26;100546.67;461231;114;921620;-78
2021/08/26 00:58:44;;;;;;;;;;;;;;;18.92;65.24;100548.61;460146;113;921599;-79
2021/08/26 00:59:47;;;;;;;;;;;;;;;18.92;65.23;100545.84;460606;113;921513;-79
2021/08/26 01:00:52;;;;;;;;;;;;;;;18.91;65.30;100553.30;460996;113;921583;-78
2021/08/26 01:02:01;;;;;;;;;;;;;;;18.89;65.38;100549.99;460356;113;921665;-80
2021/08/26 01:03:09;;;;;;;;;;;;;;;18.87;65.35;100543.89;458600;114;921542;-77
2021/08/26 01:04:23;;;;;;;;;;;;;;;18.86;65.42;100552.45;459299;113;921617;-79
2021/08/26 01:05:38;;;;;;;;;;;;;;;18.84;65.46;100549.97;460555;113;921771;-79
2021/08/26 01:06:43;;;;;;;;;;;;;;;18.85;65.47;100543.36;458540;113;921521;-78
2021/08/26 01:07:57;;;;;;;;;;;;;;;18.86;65.49;100544.98;458752;113;921684;-79
2021/08/26 01:09:02;;;;;;;;;;;;;;;18.88;65.38;100550.25;459999;113;921646;-78
2021/08/26 01:10:07;;;;;;;;;;;;;;;18.87;65.30;100543.06;459597;114;921697;-77
2021/08/26 01:11:10;;;;;;;;;;;;;;;18.86;65.30;100539.47;458079;113;921575;-79
2021/08/26 01:12:15;;;;;;;;;;;;;;;18.86;65.34;100544.98;459021;113;922055;-79
2021/08/26 01:13:18;;;;;;;;;;;;;;;18.86;65.25;100544.16;459826;113;921620;-79
2021/08/26 01:14:22;;;;;;;;;;;;;;;18.86;65.19;100546.92;458951;114;921648;-77
2021/08/26 01:15:27;;;;;;;;;;;;;;;18.84;65.23;100552.73;457824;113;921642;-78
2021/08/26 01:16:32;;;;;;;;;;;;;;;18.84;65.31;100554.67;458213;113;921566;-78
2021/08/26 01:17:35;;;;;;;;;;;;;;;18.83;65.37;100553.83;459863;113;921632;-77
2021/08/26 01:18:40;;;;;;;;;;;;;;;18.83;65.42;100553.00;459635;113;921506;-78
2021/08/26 01:19:43;;;;;;;;;;;;;;;18.81;65.46;100557.95;459201;113;921390;-78
2021/08/26 01:20:47;;;;;;;;;;;;;;;18.81;65.50;100556.02;460612;113;921546;-78
2021/08/26 01:21:50;;;;;;;;;;;;;;;18.80;65.52;100556.31;461190;113;921509;-78
2021/08/26 01:22:53;;;;;;;;;;;;;;;18.79;65.55;100551.89;459099;113;921625;-77
2021/08/26 01:23:58;;;;;;;;;;;;;;;18.79;65.61;100561.00;459778;113;921494;-77
2021/08/26 01:25:09;;;;;;;;;;;;;;;18.80;65.58;100561.84;443572;117;921572;-78
2021/08/26 01:26:14;;;;;;;;;;;;;;;18.80;65.54;100553.55;452924;114;921598;-78
2021/08/26 01:27:18;;;;;;;;;;;;;;;18.81;65.44;100560.72;449004;115;921501;-80
2021/08/26 01:28:22;;;;;;;;;;;;;;;18.81;65.47;100558.78;449920;115;921665;-77
2021/08/26 01:29:27;;;;;;;;;;;;;;;18.81;65.48;100560.72;452139;115;921580;-78
2021/08/26 01:30:33;;;;;;;;;;;;;;;18.80;65.45;100567.36;453088;115;921522;-77
2021/08/26 01:31:38;;;;;;;;;;;;;;;18.77;65.49;100557.67;453458;114;921550;-78
2021/08/26 01:32:42;;;;;;;;;;;;;;;18.75;65.51;100563.45;453595;114;921582;-77
2021/08/26 01:33:49;;;;;;;;;;;;;;;18.73;65.54;100560.15;453127;115;921417;-78
2021/08/26 01:34:52;;;;;;;;;;;;;;;18.72;65.55;100558.48;453329;114;921525;-78
2021/08/26 01:35:56;;;;;;;;;;;;;;;18.72;65.57;100561.25;453856;114;921479;-79
2021/08/26 01:37:00;;;;;;;;;;;;;;;18.70;65.59;100557.08;452495;114;921501;-77
2021/08/26 01:38:04;;;;;;;;;;;;;;;18.68;65.61;100564.82;454095;113;921496;-78
2021/08/26 01:39:09;;;;;;;;;;;;;;;18.65;65.66;100565.34;451953;115;921511;-78
2021/08/26 01:40:12;;;;;;;;;;;;;;;18.62;65.78;100566.72;454145;114;921645;-79
2021/08/26 01:41:16;;;;;;;;;;;;;;;18.58;65.85;100571.09;454039;114;921693;-77
2021/08/26 01:42:21;;;;;;;;;;;;;;;18.55;65.95;100570.81;451550;114;921588;-77
2021/08/26 01:43:24;;;;;;;;;;;;;;;18.53;66.04;100571.04;452422;114;921630;-76
2021/08/26 01:44:28;;;;;;;;;;;;;;;18.51;66.10;100567.73;453349;114;921509;-77
2021/08/26 01:45:31;;;;;;;;;;;;;;;18.50;66.11;100571.59;455340;114;921655;-77
2021/08/26 01:46:34;;;;;;;;;;;;;;;18.51;66.11;100576.02;453871;114;921609;-77
2021/08/26 01:47:40;;;;;;;;;;;;;;;18.52;66.20;100574.92;452483;115;921552;-78
2021/08/26 01:48:46;;;;;;;;;;;;;;;18.51;66.24;100567.73;454375;114;921450;-77
2021/08/26 01:49:51;;;;;;;;;;;;;;;18.52;66.21;100572.16;455246;114;921534;-77
2021/08/26 01:50:54;;;;;;;;;;;;;;;18.54;66.20;100569.11;450702;114;921544;-77
2021/08/26 01:51:58;;;;;;;;;;;;;;;18.55;66.21;100576.33;452466;114;921608;-77
2021/08/26 01:53:02;;;;;;;;;;;;;;;18.56;66.18;100575.23;453550;114;921791;-77
2021/08/26 01:54:06;;;;;;;;;;;;;;;18.56;66.23;100570.55;452312;114;921496;-79
2021/08/26 01:55:10;;;;;;;;;;;;;;;18.55;66.19;100568.89;453143;114;921498;-78
2021/08/26 01:56:13;;;;;;;;;;;;;;;18.55;66.18;100573.58;452015;114;921609;-77
2021/08/26 01:57:16;;;;;;;;;;;;;;;18.53;66.14;100572.97;453192;114;921620;-78
2021/08/26 01:58:19;;;;;;;;;;;;;;;18.51;65.97;100576.02;453497;113;921974;-79
2021/08/26 01:59:22;;;;;;;;;;;;;;;18.49;65.84;100580.13;455944;114;921678;-77
2021/08/26 02:00:26;;;;;;;;;;;;;;;18.46;65.95;100581.52;453810;114;921641;-76
2021/08/26 02:01:29;;;;;;;;;;;;;;;18.44;66.12;100578.17;453147;115;921503;-76
2021/08/26 02:02:33;;;;;;;;;;;;;;;18.43;66.16;100568.22;453929;114;921731;-78
2021/08/26 02:03:38;;;;;;;;;;;;;;;18.44;66.12;100578.17;452149;114;921525;-77
2021/08/26 02:04:41;;;;;;;;;;;;;;;18.44;66.06;100574.58;452309;114;921596;-77
2021/08/26 02:05:44;;;;;;;;;;;;;;;18.44;66.04;100572.66;459322;113;922019;-78
2021/08/26 02:06:48;;;;;;;;;;;;;;;18.42;65.81;100583.12;460317;113;921784;-78
2021/08/26 02:07:53;;;;;;;;;;;;;;;18.40;65.62;100581.73;460726;113;921549;-78
2021/08/26 02:08:56;;;;;;;;;;;;;;;18.37;65.64;100583.09;459313;113;921530;-77
2021/08/26 02:09:59;;;;;;;;;;;;;;;18.33;65.66;100577.28;457653;115;921517;-77
2021/08/26 02:11:02;;;;;;;;;;;;;;;18.30;65.77;100577.80;460549;113;921592;-77
2021/08/26 02:12:07;;;;;;;;;;;;;;;18.29;65.71;100578.08;458013;113;922135;-78
2021/08/26 02:13:10;;;;;;;;;;;;;;;18.26;65.61;100575.84;459532;113;921579;-78
2021/08/26 02:14:14;;;;;;;;;;;;;;;18.23;65.49;100579.98;459360;113;921578;-77
2021/08/26 02:15:18;;;;;;;;;;;;;;;18.21;65.49;100581.33;460825;113;921564;-78
2021/08/26 02:16:21;;;;;;;;;;;;;;;18.18;65.49;100584.62;459513;113;921562;-78
2021/08/26 02:17:24;;;;;;;;;;;;;;;18.15;65.52;100576.86;459362;113;921481;-78
2021/08/26 02:18:27;;;;;;;;;;;;;;;18.12;65.59;100577.41;459531;113;921600;-77
2021/08/26 02:19:31;;;;;;;;;;;;;;;18.08;65.63;100579.87;459820;113;921560;-77
2021/08/26 02:20:34;;;;;;;;;;;;;;;18.05;65.68;100583.14;458359;113;921616;-78
2021/08/26 02:21:37;;;;;;;;;;;;;;;18.00;65.72;100585.86;460289;113;921497;-79
2021/08/26 02:22:40;;;;;;;;;;;;;;;17.96;65.83;100587.49;461436;113;921900;-78
2021/08/26 02:23:43;;;;;;;;;;;;;;;17.95;66.00;100584.98;460246;114;921548;-79
2021/08/26 02:24:46;;;;;;;;;;;;;;;17.93;66.18;100585.24;460549;113;921482;-76
2021/08/26 02:25:50;;;;;;;;;;;;;;;17.92;66.30;100580.81;459966;113;921471;-78
2021/08/26 02:26:53;;;;;;;;;;;;;;;17.93;66.32;100588.00;452656;115;921755;-79
2021/08/26 02:27:56;;;;;;;;;;;;;;;17.93;66.42;100588.84;452945;113;921799;-77
2021/08/26 02:29:00;;;;;;;;;;;;;;;17.96;66.47;100575.63;460146;114;921577;-78
2021/08/26 02:30:04;;;;;;;;;;;;;;;17.98;66.53;100589.97;460188;113;921444;-79
2021/08/26 02:31:07;;;;;;;;;;;;;;;18.00;66.52;100582.27;460119;113;921596;-78
2021/08/26 02:32:10;;;;;;;;;;;;;;;18.00;66.58;100591.38;459127;114;921527;-77
2021/08/26 02:33:14;;;;;;;;;;;;;;;18.01;66.59;100589.45;457483;115;921610;-78
2021/08/26 02:34:17;;;;;;;;;;;;;;;18.01;66.68;100586.70;460638;113;921522;-77
2021/08/26 02:35:20;;;;;;;;;;;;;;;18.01;66.64;100589.45;460100;113;921581;-78
2021/08/26 02:36:23;;;;;;;;;;;;;;;17.99;66.62;100584.20;459120;113;921381;-78
2021/08/26 02:37:26;;;;;;;;;;;;;;;17.99;66.63;100594.39;459215;114;921604;-77
2021/08/26 02:38:29;;;;;;;;;;;;;;;17.96;66.73;100589.41;460229;113;921848;-78
2021/08/26 02:39:33;;;;;;;;;;;;;;;17.93;66.81;100588.84;460098;114;921596;-77
2021/08/26 02:40:36;;;;;;;;;;;;;;;17.92;66.84;100580.81;458794;113;921532;-78
2021/08/26 02:41:39;;;;;;;;;;;;;;;17.89;66.93;100581.36;458368;113;921412;-78
2021/08/26 02:42:42;;;;;;;;;;;;;;;17.86;67.03;100581.89;459528;113;921567;-77
2021/08/26 02:43:46;;;;;;;;;;;;;;;17.84;67.14;100584.08;459434;113;921574;-78
2021/08/26 02:44:49;;;;;;;;;;;;;;;17.83;67.23;100579.64;458396;115;921569;-77
2021/08/26 02:45:52;;;;;;;;;;;;;;;17.81;67.20;100584.58;451804;115;921599;-78
2021/08/26 02:46:57;;;;;;;;;;;;;;;17.78;67.36;100585.95;452637;115;921622;-78
2021/08/26 02:48:00;;;;;;;;;;;;;;;17.79;67.39;100584.86;460422;113;921430;-78
2021/08/26 02:49:03;;;;;;;;;;;;;;;17.79;67.48;100589.55;460558;113;921465;-78
2021/08/26 02:50:06;;;;;;;;;;;;;;;17.80;67.52;100586.53;460397;113;921795;-78
2021/08/26 02:51:10;;;;;;;;;;;;;;;17.81;67.42;100585.41;460226;113;921509;-79
2021/08/26 02:52:13;;;;;;;;;;;;;;;17.81;67.46;100590.09;458320;113;921550;-77
2021/08/26 02:53:16;;;;;;;;;;;;;;;17.79;67.50;100590.38;459946;113;921641;-78
2021/08/26 02:54:20;;;;;;;;;;;;;;;17.80;67.57;100585.70;459896;113;921705;-77
2021/08/26 02:55:23;;;;;;;;;;;;;;;17.82;67.58;100586.25;458607;113;921547;-77
2021/08/26 02:56:26;;;;;;;;;;;;;;;17.83;67.56;100588.75;457209;115;921672;-78
2021/08/26 02:57:29;;;;;;;;;;;;;;;17.84;67.49;100584.91;458614;113;921572;-76
2021/08/26 02:58:33;;;;;;;;;;;;;;;17.83;67.50;100591.52;453541;115;922149;-79
2021/08/26 02:59:36;;;;;;;;;;;;;;;17.83;67.53;100582.41;453708;115;921607;-77
2021/08/26 03:00:39;;;;;;;;;;;;;;;17.83;67.60;100579.64;459300;113;921745;-76
2021/08/26 03:01:43;;;;;;;;;;;;;;;17.83;67.67;100583.23;460041;113;921465;-76
2021/08/26 03:02:46;;;;;;;;;;;;;;;17.86;67.68;100590.97;459373;113;921628;-79
2021/08/26 03:03:50;;;;;;;;;;;;;;;17.88;67.64;100585.20;461846;113;921699;-78
2021/08/26 03:04:53;;;;;;;;;;;;;;;17.90;67.56;100594.89;460670;113;921579;-77
2021/08/26 03:05:57;;;;;;;;;;;;;;;17.91;67.53;100590.21;460019;113;921751;-78
2021/08/26 03:07:00;;;;;;;;;;;;;;;17.92;67.51;100589.09;460287;114;921565;-77
2021/08/26 03:08:04;;;;;;;;;;;;;;;17.92;67.48;100591.85;460334;113;921580;-78
2021/08/26 03:09:07;;;;;;;;;;;;;;;17.93;67.38;100591.59;459807;113;921558;-78
2021/08/26 03:10:10;;;;;;;;;;;;;;;17.93;67.40;100594.35;459726;113;921348;-77
2021/08/26 03:11:13;;;;;;;;;;;;;;;17.93;67.48;100590.77;461905;113;921563;-77
2021/08/26 03:12:17;;;;;;;;;;;;;;;17.93;67.51;100588.00;460870;113;921540;-78
2021/08/26 03:13:20;;;;;;;;;;;;;;;17.93;67.47;100588.00;460198;111;921658;-78
2021/08/26 03:14:23;;;;;;;;;;;;;;;17.94;67.44;100592.43;458382;113;921617;-77
2021/08/26 03:15:26;;;;;;;;;;;;;;;17.96;67.34;100584.73;461528;113;921597;-77
2021/08/26 03:16:29;;;;;;;;;;;;;;;17.97;67.25;100593.84;458720;113;921466;-77
2021/08/26 03:17:32;;;;;;;;;;;;;;;17.99;67.19;100586.95;458493;114;921487;-78
2021/08/26 03:18:36;;;;;;;;;;;;;;;18.01;67.12;100594.97;459692;113;921563;-78
2021/08/26 03:19:39;;;;;;;;;;;;;;;18.03;67.04;100590.03;460017;113;921501;-77
2021/08/26 03:20:44;;;;;;;;;;;;;;;18.04;66.96;100588.91;458470;113;921665;-78
2021/08/26 03:21:47;;;;;;;;;;;;;;;18.05;66.92;100596.10;458650;113;921464;-77
2021/08/26 03:22:51;;;;;;;;;;;;;;;18.04;66.97;100595.27;458829;113;921539;-78
2021/08/26 03:23:54;;;;;;;;;;;;;;;18.05;66.95;100590.58;458898;113;921569;-77
2021/08/26 03:24:57;;;;;;;;;;;;;;;18.04;67.02;100598.03;457761;113;921504;-77
2021/08/26 03:26:00;;;;;;;;;;;;;;;18.03;67.02;100588.08;458438;113;921582;-77
2021/08/26 03:27:03;;;;;;;;;;;;;;;18.01;67.09;100593.05;461559;113;922091;-78
2021/08/26 03:28:06;;;;;;;;;;;;;;;17.99;67.19;100594.39;460385;113;921631;-77
2021/08/26 03:29:09;;;;;;;;;;;;;;;17.96;67.25;100593.02;458726;113;921506;-77
2021/08/26 03:30:13;;;;;;;;;;;;;;;17.93;67.32;100593.52;462249;113;922132;-77
2021/08/26 03:31:16;;;;;;;;;;;;;;;17.92;67.43;100591.85;460844;113;921529;-78
2021/08/26 03:32:19;;;;;;;;;;;;;;;17.93;67.38;100597.11;459516;113;921552;-78
2021/08/26 03:33:22;;;;;;;;;;;;;;;17.95;67.38;100593.27;459199;113;921566;-77
2021/08/26 03:34:25;;;;;;;;;;;;;;;17.97;67.36;100594.68;460678;113;921592;-77
2021/08/26 03:35:28;;;;;;;;;;;;;;;17.98;67.40;100593.56;460657;113;921582;-78
2021/08/26 03:36:31;;;;;;;;;;;;;;;17.98;67.43;100596.31;460669;113;922097;-77
2021/08/26 03:37:35;;;;;;;;;;;;;;;17.99;67.45;100595.23;458502;113;921710;-77
2021/08/26 03:38:38;;;;;;;;;;;;;;;17.99;67.44;100592.47;461552;113;921468;-76
2021/08/26 03:39:41;;;;;;;;;;;;;;;18.00;67.48;100593.30;458868;113;921622;-76
2021/08/26 03:40:44;;;;;;;;;;;;;;;18.01;67.51;100594.97;459151;113;921425;-78
2021/08/26 03:41:47;;;;;;;;;;;;;;;18.02;67.46;100585.61;458285;113;921746;-75
2021/08/26 03:42:50;;;;;;;;;;;;;;;18.04;67.32;100592.51;458925;113;921560;-77
2021/08/26 03:43:54;;;;;;;;;;;;;;;18.07;67.26;100600.28;459476;113;921651;-77
2021/08/26 03:44:56;;;;;;;;;;;;;;;18.09;67.26;100599.98;458366;113;921625;-78
2021/08/26 03:45:59;;;;;;;;;;;;;;;18.12;67.08;100602.23;459873;113;921621;-76
2021/08/26 03:47:03;;;;;;;;;;;;;;;18.15;67.02;100601.70;460294;113;921507;-77
2021/08/26 03:48:06;;;;;;;;;;;;;;;18.17;66.80;100597.59;457959;113;921570;-79
2021/08/26 03:49:09;;;;;;;;;;;;;;;18.18;66.53;100607.54;460961;113;921668;-78
2021/08/26 03:50:13;;;;;;;;;;;;;;;18.20;66.49;100599.81;461727;113;921691;-77
2021/08/26 03:51:16;;;;;;;;;;;;;;;18.23;66.42;100609.50;461109;113;921638;-76
2021/08/26 03:52:19;;;;;;;;;;;;;;;18.24;66.25;100609.25;460563;113;921510;-75
2021/08/26 03:53:22;;;;;;;;;;;;;;;18.28;66.14;100604.85;461025;113;922045;-78
2021/08/26 03:54:26;;;;;;;;;;;;;;;18.31;66.03;100608.99;460781;113;921508;-79
2021/08/26 03:55:29;;;;;;;;;;;;;;;18.33;65.73;100607.64;459328;113;921698;-76
2021/08/26 03:56:33;;;;;;;;;;;;;;;18.36;65.53;100609.02;460114;114;921572;-76
2021/08/26 03:57:36;;;;;;;;;;;;;;;18.39;65.39;100604.92;460407;113;921597;-77
2021/08/26 03:58:39;;;;;;;;;;;;;;;18.42;65.22;100610.73;460046;112;921476;-79
2021/08/26 03:59:42;;;;;;;;;;;;;;;18.44;65.11;100607.71;461004;113;921617;-77
2021/08/26 04:00:45;;;;;;;;;;;;;;;18.45;65.11;100610.22;442897;116;921478;-78
2021/08/26 04:01:49;;;;;;;;;;;;;;;18.48;65.04;100609.66;443473;117;921521;-78
2021/08/26 04:02:52;;;;;;;;;;;;;;;18.49;64.88;100613.27;458405;113;921615;-77
2021/08/26 04:03:55;;;;;;;;;;;;;;;18.49;65.05;100607.73;459270;113;921945;-78
2021/08/26 04:05:00;;;;;;;;;;;;;;;18.48;65.06;100612.42;458444;113;921543;-77
2021/08/26 04:06:03;;;;;;;;;;;;;;;18.48;65.07;100609.66;459009;113;921584;-77
2021/08/26 04:07:07;;;;;;;;;;;;;;;18.48;65.12;100603.31;458658;114;921630;-77
2021/08/26 04:08:10;;;;;;;;;;;;;;;18.47;64.60;100610.76;460397;113;921495;-76
2021/08/26 04:09:13;;;;;;;;;;;;;;;18.46;64.82;100606.36;460968;113;921605;-80
2021/08/26 04:10:16;;;;;;;;;;;;;;;18.46;64.92;100611.88;445495;117;921610;-78
2021/08/26 04:11:19;;;;;;;;;;;;;;;18.46;64.87;100611.88;448819;116;921579;-77
2021/08/26 04:12:22;;;;;;;;;;;;;;;18.46;64.76;100608.28;450252;117;921580;-78
2021/08/26 04:13:25;;;;;;;;;;;;;;;18.45;64.65;100610.22;454366;114;921481;-77
2021/08/26 04:14:28;;;;;;;;;;;;;;;18.45;64.45;100607.45;453760;114;921567;-77
2021/08/26 04:15:31;;;;;;;;;;;;;;;18.45;64.34;100604.69;452995;114;921665;-76
2021/08/26 04:16:35;;;;;;;;;;;;;;;18.46;64.18;100613.81;452034;114;921498;-75
2021/08/26 04:17:39;;;;;;;;;;;;;;;18.46;64.06;100602.77;454329;114;921580;-77
2021/08/26 04:18:42;;;;;;;;;;;;;;;18.46;63.95;100603.59;448129;115;921585;-77
2021/08/26 04:19:46;;;;;;;;;;;;;;;18.45;63.79;100604.69;447720;116;921550;-76
2021/08/26 04:20:49;;;;;;;;;;;;;;;18.46;63.66;100600.84;448418;115;921640;-77
2021/08/26 04:21:53;;;;;;;;;;;;;;;18.46;63.63;100597.24;449513;115;921541;-78
2021/08/26 04:22:56;;;;;;;;;;;;;;;18.46;63.53;100595.31;448082;116;921547;-76
2021/08/26 04:23:59;;;;;;;;;;;;;;;18.46;63.37;100589.80;447907;117;921499;-77
2021/08/26 04:25:03;;;;;;;;;;;;;;;18.47;63.30;100602.48;448131;115;921518;-75
2021/08/26 04:26:06;;;;;;;;;;;;;;;18.48;63.29;100587.58;447738;115;921558;-77
2021/08/26 04:27:09;;;;;;;;;;;;;;;18.49;63.26;100597.53;451799;115;921533;-77
2021/08/26 04:28:13;;;;;;;;;;;;;;;18.50;63.23;100596.44;449970;116;921530;-75
2021/08/26 04:29:16;;;;;;;;;;;;;;;18.53;63.27;100589.53;450924;115;922048;-75
2021/08/26 04:30:19;;;;;;;;;;;;;;;18.55;63.31;100596.50;450709;115;921616;-76
2021/08/26 04:31:23;;;;;;;;;;;;;;;18.57;63.22;100599.84;461017;113;921501;-76
2021/08/26 04:32:26;;;;;;;;;;;;;;;18.60;63.22;100601.22;458622;113;921468;-76
2021/08/26 04:33:29;;;;;;;;;;;;;;;18.61;63.06;100595.44;460220;113;921470;-79
2021/08/26 04:34:33;;;;;;;;;;;;;;;18.63;63.05;100598.77;459648;113;921513;-78
2021/08/26 04:35:36;;;;;;;;;;;;;;;18.65;62.99;100601.24;459518;113;921664;-77
2021/08/26 04:36:39;;;;;;;;;;;;;;;18.66;62.98;100606.51;460049;113;921487;-77
2021/08/26 04:37:42;;;;;;;;;;;;;;;18.69;62.97;100602.36;458719;113;921578;-76
2021/08/26 04:38:46;;;;;;;;;;;;;;;18.73;63.01;100603.52;458481;113;921570;-77
2021/08/26 04:39:48;;;;;;;;;;;;;;;18.77;63.00;100599.11;449082;115;921639;-77
2021/08/26 04:40:52;;;;;;;;;;;;;;;18.80;62.82;100603.27;451661;115;921768;-78
2021/08/26 04:41:55;;;;;;;;;;;;;;;18.82;62.64;100599.13;459995;113;922071;-79
2021/08/26 04:42:58;;;;;;;;;;;;;;;18.85;62.60;100601.38;457049;113;921555;-75
2021/08/26 04:44:02;;;;;;;;;;;;;;;18.88;62.55;100600.82;458426;113;921518;-78
2021/08/26 04:45:05;;;;;;;;;;;;;;;18.92;62.56;100601.94;458399;113;921690;-78
2021/08/26 04:46:08;;;;;;;;;;;;;;;18.94;62.66;100604.44;459396;113;921696;-77
2021/08/26 04:47:11;;;;;;;;;;;;;;;18.97;62.62;100595.59;457960;113;921470;-77
2021/08/26 04:48:14;;;;;;;;;;;;;;;19.00;62.60;100597.84;457397;113;921739;-76
2021/08/26 04:49:18;;;;;;;;;;;;;;;19.02;62.44;100595.64;459648;113;921654;-76
2021/08/26 04:50:21;;;;;;;;;;;;;;;19.06;62.42;100602.28;460286;113;921483;-78
2021/08/26 04:51:24;;;;;;;;;;;;;;;19.10;62.39;100595.94;460992;113;921904;-77
2021/08/26 04:52:27;;;;;;;;;;;;;;;19.13;62.49;100589.05;460966;113;922018;-77
2021/08/26 04:53:31;;;;;;;;;;;;;;;19.15;62.50;100589.59;460370;113;921821;-76
2021/08/26 04:54:36;;;;;;;;;;;;;;;19.18;62.46;100594.59;459917;113;921639;-77
2021/08/26 04:55:39;;;;;;;;;;;;;;;19.19;62.38;100593.47;458511;114;921606;-79
2021/08/26 04:56:42;;;;;;;;;;;;;;;19.21;62.39;100594.05;454166;115;921705;-78
2021/08/26 04:57:46;;;;;;;;;;;;;;;19.23;62.26;100599.31;454532;115;921730;-78
2021/08/26 04:58:49;;;;;;;;;;;;;;;19.25;62.04;100595.16;459821;114;921543;-78
2021/08/26 04:59:52;;;;;;;;;;;;;;;19.25;61.87;100592.39;457385;113;921536;-77
2021/08/26 05:00:55;;;;;;;;;;;;;;;19.27;61.87;100595.72;460510;113;921819;-77
2021/08/26 05:01:58;;;;;;;;;;;;;;;19.29;61.88;100595.45;458415;114;921516;-77
2021/08/26 05:03:03;;;;;;;;;;;;;;;19.31;61.83;100594.06;458004;114;921525;-78
2021/08/26 05:04:07;;;;;;;;;;;;;;;19.34;61.86;100590.78;458887;113;921628;-79
2021/08/26 05:05:11;;;;;;;;;;;;;;;19.37;61.85;100586.62;459760;113;921477;-79
2021/08/26 05:06:14;;;;;;;;;;;;;;;19.39;61.76;100593.55;460408;113;921428;-79
2021/08/26 05:07:17;;;;;;;;;;;;;;;19.41;61.63;100590.49;458291;113;921598;-78
2021/08/26 05:08:20;;;;;;;;;;;;;;;19.43;61.58;100577.23;458852;113;921643;-78
2021/08/26 05:09:23;;;;;;;;;;;;;;;19.46;61.55;100587.80;454367;115;921781;-77
2021/08/26 05:10:26;;;;;;;;;;;;;;;19.48;61.47;100589.17;454886;113;922051;-79
2021/08/26 05:11:29;;;;;;;;;;;;;;;19.52;61.39;100586.67;459407;114;921585;-78
2021/08/26 05:12:33;;;;;;;;;;;;;;;19.53;61.34;100586.41;462269;112;921679;-77
2021/08/26 05:13:36;;;;;;;;;;;;;;;19.55;61.32;100578.69;463017;112;921745;-78
2021/08/26 05:14:39;;;;;;;;;;;;;;;19.58;61.31;100582.82;460230;114;921581;-78
2021/08/26 05:15:43;;;;;;;;;;;;;;;19.61;61.30;100586.98;462463;112;921545;-77
2021/08/26 05:16:46;;;;;;;;;;;;;;;19.63;61.31;100585.59;460860;112;921570;-78
2021/08/26 05:17:49;;;;;;;;;;;;;;;19.67;61.11;100580.36;459964;112;921452;-79
2021/08/26 05:18:53;;;;;;;;;;;;;;;19.69;61.01;100583.66;451825;114;921375;-79
2021/08/26 05:19:56;;;;;;;;;;;;;;;19.70;60.96;100577.03;451990;114;921474;-79
2021/08/26 05:20:59;;;;;;;;;;;;;;;19.74;60.89;100580.89;449886;115;922048;-77
2021/08/26 05:22:03;;;;;;;;;;;;;;;19.75;60.83;100577.03;448091;116;921528;-77
2021/08/26 05:23:06;;;;;;;;;;;;;;;19.77;60.88;100581.20;448418;115;921668;-78
2021/08/26 05:24:09;;;;;;;;;;;;;;;19.79;60.83;100573.43;449717;115;921558;-78
2021/08/26 05:25:13;;;;;;;;;;;;;;;19.82;60.84;100577.59;451369;115;921502;-78
2021/08/26 05:26:16;;;;;;;;;;;;;;;19.83;60.74;100571.80;448179;115;921533;-77
2021/08/26 05:27:19;;;;;;;;;;;;;;;19.86;60.61;100567.62;448066;115;921511;-78